sensor_id;sensor_type;location;lat;lon;timestamp;P1;durP1;ratioP1;P2;durP2;ratioP2
74196;SDS011;62555;52.678;4.900;2022-11-24T00:01:26;7.60;;;3.28;;
74196;SDS011;62555;52.678;4.900;2022-11-24T00:03:53;8.43;;;2.90;;
74196;SDS011;62555;52.678;4.900;2022-11-24T00:06:21;7.72;;;2.60;;
74196;SDS011;62555;52.678;4.900;2022-11-24T00:08:46;8.80;;;2.67;;
74196;SDS011;62555;52.678;4.900;2022-11-24T00:11:13;7.40;;;3.25;;
74196;SDS011;62555;52.678;4.900;2022-11-24T00:13:40;9.13;;;3.30;;
74196;SDS011;62555;52.678;4.900;2022-11-24T00:16:16;9.10;;;3.58;;
74196;SDS011;62555;52.678;4.900;2022-11-24T00:18:50;8.82;;;3.20;;
74196;SDS011;62555;52.678;4.900;2022-11-24T00:23:42;7.75;;;2.80;;
74196;SDS011;62555;52.678;4.900;2022-11-24T00:28:41;9.25;;;3.03;;
74196;SDS011;62555;52.678;4.900;2022-11-24T00:31:40;11.43;;;3.55;;
74196;SDS011;62555;52.678;4.900;2022-11-24T00:34:01;6.75;;;2.90;;
74196;SDS011;62555;52.678;4.900;2022-11-24T00:36:29;7.90;;;2.55;;
74196;SDS011;62555;52.678;4.900;2022-11-24T00:39:06;5.80;;;2.45;;
74196;SDS011;62555;52.678;4.900;2022-11-24T00:41:34;9.73;;;3.13;;
74196;SDS011;62555;52.678;4.900;2022-11-24T00:43:59;9.98;;;2.53;;
74196;SDS011;62555;52.678;4.900;2022-11-24T00:46:25;5.82;;;2.63;;
74196;SDS011;62555;52.678;4.900;2022-11-24T00:48:51;10.65;;;3.03;;
74196;SDS011;62555;52.678;4.900;2022-11-24T00:51:17;8.93;;;3.38;;
74196;SDS011;62555;52.678;4.900;2022-11-24T00:53:44;7.88;;;3.10;;
74196;SDS011;62555;52.678;4.900;2022-11-24T00:56:10;6.47;;;2.33;;
74196;SDS011;62555;52.678;4.900;2022-11-24T00:58:36;9.40;;;3.20;;
74196;SDS011;62555;52.678;4.900;2022-11-24T01:01:06;8.30;;;2.70;;
74196;SDS011;62555;52.678;4.900;2022-11-24T01:03:32;6.97;;;2.60;;
74196;SDS011;62555;52.678;4.900;2022-11-24T01:06:05;9.48;;;2.47;;
74196;SDS011;62555;52.678;4.900;2022-11-24T01:08:32;7.38;;;2.90;;
74196;SDS011;62555;52.678;4.900;2022-11-24T01:11:08;8.50;;;2.65;;
74196;SDS011;62555;52.678;4.900;2022-11-24T01:13:33;8.18;;;3.00;;
74196;SDS011;62555;52.678;4.900;2022-11-24T01:15:59;8.93;;;2.38;;
74196;SDS011;62555;52.678;4.900;2022-11-24T01:18:24;7.45;;;2.58;;
74196;SDS011;62555;52.678;4.900;2022-11-24T01:20:49;7.32;;;2.67;;
74196;SDS011;62555;52.678;4.900;2022-11-24T01:23:15;8.13;;;2.15;;
74196;SDS011;62555;52.678;4.900;2022-11-24T01:25:40;7.72;;;2.70;;
74196;SDS011;62555;52.678;4.900;2022-11-24T01:28:05;5.07;;;2.03;;
74196;SDS011;62555;52.678;4.900;2022-11-24T01:30:31;6.78;;;2.40;;
74196;SDS011;62555;52.678;4.900;2022-11-24T01:32:56;7.47;;;2.85;;
74196;SDS011;62555;52.678;4.900;2022-11-24T01:35:21;5.28;;;2.05;;
74196;SDS011;62555;52.678;4.900;2022-11-24T01:37:47;3.90;;;1.98;;
74196;SDS011;62555;52.678;4.900;2022-11-24T01:40:12;7.47;;;2.65;;
74196;SDS011;62555;52.678;4.900;2022-11-24T01:42:39;5.82;;;2.47;;
74196;SDS011;62555;52.678;4.900;2022-11-24T01:45:30;4.72;;;2.38;;
74196;SDS011;62555;52.678;4.900;2022-11-24T01:48:01;8.05;;;2.05;;
74196;SDS011;62555;52.678;4.900;2022-11-24T01:50:29;7.32;;;2.15;;
74196;SDS011;62555;52.678;4.900;2022-11-24T01:52:55;6.45;;;2.08;;
74196;SDS011;62555;52.678;4.900;2022-11-24T01:55:24;5.15;;;1.83;;
74196;SDS011;62555;52.678;4.900;2022-11-24T01:57:55;7.45;;;2.17;;
74196;SDS011;62555;52.678;4.900;2022-11-24T02:00:25;10.50;;;2.85;;
74196;SDS011;62555;52.678;4.900;2022-11-24T02:02:51;5.47;;;2.00;;
74196;SDS011;62555;52.678;4.900;2022-11-24T02:07:52;6.65;;;1.90;;
74196;SDS011;62555;52.678;4.900;2022-11-24T02:12:45;6.97;;;1.90;;
74196;SDS011;62555;52.678;4.900;2022-11-24T02:15:13;6.03;;;2.50;;
74196;SDS011;62555;52.678;4.900;2022-11-24T02:17:39;4.00;;;1.73;;
74196;SDS011;62555;52.678;4.900;2022-11-24T02:20:06;8.65;;;2.50;;
74196;SDS011;62555;52.678;4.900;2022-11-24T02:22:35;6.25;;;1.90;;
74196;SDS011;62555;52.678;4.900;2022-11-24T02:27:52;5.50;;;1.90;;
74196;SDS011;62555;52.678;4.900;2022-11-24T02:30:18;8.40;;;2.42;;
74196;SDS011;62555;52.678;4.900;2022-11-24T02:32:44;6.75;;;2.08;;
74196;SDS011;62555;52.678;4.900;2022-11-24T02:35:10;6.35;;;2.08;;
74196;SDS011;62555;52.678;4.900;2022-11-24T02:37:35;7.55;;;2.05;;
74196;SDS011;62555;52.678;4.900;2022-11-24T02:40:01;7.45;;;2.10;;
74196;SDS011;62555;52.678;4.900;2022-11-24T02:42:27;5.03;;;2.17;;
74196;SDS011;62555;52.678;4.900;2022-11-24T02:44:57;7.47;;;2.10;;
74196;SDS011;62555;52.678;4.900;2022-11-24T02:47:23;5.90;;;1.73;;
74196;SDS011;62555;52.678;4.900;2022-11-24T02:49:49;4.70;;;2.05;;
74196;SDS011;62555;52.678;4.900;2022-11-24T02:52:14;6.90;;;2.72;;
74196;SDS011;62555;52.678;4.900;2022-11-24T02:54:40;6.60;;;2.40;;
74196;SDS011;62555;52.678;4.900;2022-11-24T02:57:05;4.97;;;1.98;;
74196;SDS011;62555;52.678;4.900;2022-11-24T02:59:31;3.47;;;1.77;;
74196;SDS011;62555;52.678;4.900;2022-11-24T03:01:56;5.50;;;2.03;;
74196;SDS011;62555;52.678;4.900;2022-11-24T03:04:22;7.53;;;2.55;;
74196;SDS011;62555;52.678;4.900;2022-11-24T03:06:47;5.57;;;2.35;;
74196;SDS011;62555;52.678;4.900;2022-11-24T03:09:13;7.25;;;2.45;;
74196;SDS011;62555;52.678;4.900;2022-11-24T03:11:38;5.10;;;1.90;;
74196;SDS011;62555;52.678;4.900;2022-11-24T03:14:04;8.85;;;2.17;;
74196;SDS011;62555;52.678;4.900;2022-11-24T03:16:29;5.75;;;1.88;;
74196;SDS011;62555;52.678;4.900;2022-11-24T03:18:55;5.35;;;1.60;;
74196;SDS011;62555;52.678;4.900;2022-11-24T03:21:20;5.72;;;1.55;;
74196;SDS011;62555;52.678;4.900;2022-11-24T03:23:46;7.00;;;2.60;;
74196;SDS011;62555;52.678;4.900;2022-11-24T03:26:15;7.28;;;2.30;;
74196;SDS011;62555;52.678;4.900;2022-11-24T03:28:41;4.65;;;1.70;;
74196;SDS011;62555;52.678;4.900;2022-11-24T03:31:07;7.80;;;2.00;;
74196;SDS011;62555;52.678;4.900;2022-11-24T03:33:33;6.18;;;1.65;;
74196;SDS011;62555;52.678;4.900;2022-11-24T03:35:59;4.70;;;1.42;;
74196;SDS011;62555;52.678;4.900;2022-11-24T03:38:24;5.10;;;1.50;;
74196;SDS011;62555;52.678;4.900;2022-11-24T03:40:50;3.90;;;2.45;;
74196;SDS011;62555;52.678;4.900;2022-11-24T03:43:15;5.55;;;1.50;;
74196;SDS011;62555;52.678;4.900;2022-11-24T03:45:43;5.72;;;1.80;;
74196;SDS011;62555;52.678;4.900;2022-11-24T03:48:09;4.22;;;1.40;;
74196;SDS011;62555;52.678;4.900;2022-11-24T03:50:35;5.63;;;1.95;;
74196;SDS011;62555;52.678;4.900;2022-11-24T03:53:00;5.05;;;1.50;;
74196;SDS011;62555;52.678;4.900;2022-11-24T03:55:26;5.07;;;1.65;;
74196;SDS011;62555;52.678;4.900;2022-11-24T03:57:51;6.78;;;1.52;;
74196;SDS011;62555;52.678;4.900;2022-11-24T04:00:16;5.88;;;1.75;;
74196;SDS011;62555;52.678;4.900;2022-11-24T04:02:42;5.70;;;1.90;;
74196;SDS011;62555;52.678;4.900;2022-11-24T04:05:07;5.03;;;1.85;;
74196;SDS011;62555;52.678;4.900;2022-11-24T04:07:33;5.68;;;1.83;;
74196;SDS011;62555;52.678;4.900;2022-11-24T04:09:59;5.75;;;1.55;;
74196;SDS011;62555;52.678;4.900;2022-11-24T04:12:24;2.70;;;1.60;;
74196;SDS011;62555;52.678;4.900;2022-11-24T04:15:07;4.60;;;1.77;;
74196;SDS011;62555;52.678;4.900;2022-11-24T04:17:34;7.00;;;1.80;;
74196;SDS011;62555;52.678;4.900;2022-11-24T04:19:59;4.18;;;1.00;;
74196;SDS011;62555;52.678;4.900;2022-11-24T04:22:24;4.95;;;1.63;;
74196;SDS011;62555;52.678;4.900;2022-11-24T04:24:50;4.90;;;1.85;;
74196;SDS011;62555;52.678;4.900;2022-11-24T04:27:15;4.50;;;1.42;;
74196;SDS011;62555;52.678;4.900;2022-11-24T04:29:40;5.53;;;1.40;;
74196;SDS011;62555;52.678;4.900;2022-11-24T04:32:05;3.35;;;1.60;;
74196;SDS011;62555;52.678;4.900;2022-11-24T04:34:31;4.18;;;1.23;;
74196;SDS011;62555;52.678;4.900;2022-11-24T04:36:56;5.88;;;1.30;;
74196;SDS011;62555;52.678;4.900;2022-11-24T04:39:21;4.25;;;1.23;;
74196;SDS011;62555;52.678;4.900;2022-11-24T04:41:47;3.75;;;1.70;;
74196;SDS011;62555;52.678;4.900;2022-11-24T04:44:12;2.80;;;1.42;;
74196;SDS011;62555;52.678;4.900;2022-11-24T04:46:37;3.78;;;1.33;;
74196;SDS011;62555;52.678;4.900;2022-11-24T04:49:03;5.28;;;1.60;;
74196;SDS011;62555;52.678;4.900;2022-11-24T04:51:29;4.55;;;1.80;;
74196;SDS011;62555;52.678;4.900;2022-11-24T04:53:54;4.05;;;1.60;;
74196;SDS011;62555;52.678;4.900;2022-11-24T04:56:20;3.80;;;1.10;;
74196;SDS011;62555;52.678;4.900;2022-11-24T04:58:48;4.65;;;1.38;;
74196;SDS011;62555;52.678;4.900;2022-11-24T05:01:13;6.25;;;2.10;;
74196;SDS011;62555;52.678;4.900;2022-11-24T05:03:39;5.95;;;1.73;;
74196;SDS011;62555;52.678;4.900;2022-11-24T05:06:04;3.75;;;1.40;;
74196;SDS011;62555;52.678;4.900;2022-11-24T05:08:30;3.10;;;1.30;;
74196;SDS011;62555;52.678;4.900;2022-11-24T05:10:55;4.30;;;1.42;;
74196;SDS011;62555;52.678;4.900;2022-11-24T05:13:21;6.07;;;1.75;;
74196;SDS011;62555;52.678;4.900;2022-11-24T05:15:46;5.50;;;1.33;;
74196;SDS011;62555;52.678;4.900;2022-11-24T05:18:12;5.88;;;1.65;;
74196;SDS011;62555;52.678;4.900;2022-11-24T05:20:39;5.55;;;1.63;;
74196;SDS011;62555;52.678;4.900;2022-11-24T05:23:05;5.07;;;1.45;;
74196;SDS011;62555;52.678;4.900;2022-11-24T05:25:31;6.28;;;1.83;;
74196;SDS011;62555;52.678;4.900;2022-11-24T05:27:58;3.88;;;1.10;;
74196;SDS011;62555;52.678;4.900;2022-11-24T05:30:25;4.40;;;1.92;;
74196;SDS011;62555;52.678;4.900;2022-11-24T05:32:50;4.15;;;1.20;;
74196;SDS011;62555;52.678;4.900;2022-11-24T05:35:15;4.47;;;1.50;;
74196;SDS011;62555;52.678;4.900;2022-11-24T05:37:41;4.40;;;1.48;;
74196;SDS011;62555;52.678;4.900;2022-11-24T05:40:06;6.32;;;2.30;;
74196;SDS011;62555;52.678;4.900;2022-11-24T05:42:32;3.83;;;1.20;;
74196;SDS011;62555;52.678;4.900;2022-11-24T05:45:07;5.82;;;1.67;;
74196;SDS011;62555;52.678;4.900;2022-11-24T05:47:34;5.45;;;1.90;;
74196;SDS011;62555;52.678;4.900;2022-11-24T05:49:59;6.60;;;1.73;;
74196;SDS011;62555;52.678;4.900;2022-11-24T05:52:25;6.38;;;2.15;;
74196;SDS011;62555;52.678;4.900;2022-11-24T05:54:50;5.93;;;1.52;;
74196;SDS011;62555;52.678;4.900;2022-11-24T05:57:16;7.03;;;1.63;;
74196;SDS011;62555;52.678;4.900;2022-11-24T05:59:41;5.07;;;1.63;;
74196;SDS011;62555;52.678;4.900;2022-11-24T06:02:07;6.47;;;1.45;;
74196;SDS011;62555;52.678;4.900;2022-11-24T06:04:33;6.25;;;1.17;;
74196;SDS011;62555;52.678;4.900;2022-11-24T06:06:59;4.68;;;2.08;;
74196;SDS011;62555;52.678;4.900;2022-11-24T06:09:24;5.95;;;1.42;;
74196;SDS011;62555;52.678;4.900;2022-11-24T06:11:50;4.63;;;1.10;;
74196;SDS011;62555;52.678;4.900;2022-11-24T06:14:15;4.95;;;1.10;;
74196;SDS011;62555;52.678;4.900;2022-11-24T06:16:40;5.75;;;1.70;;
74196;SDS011;62555;52.678;4.900;2022-11-24T06:19:06;4.38;;;1.80;;
74196;SDS011;62555;52.678;4.900;2022-11-24T06:21:31;3.67;;;1.15;;
74196;SDS011;62555;52.678;4.900;2022-11-24T06:23:56;3.88;;;1.00;;
74196;SDS011;62555;52.678;4.900;2022-11-24T06:26:22;4.75;;;1.20;;
74196;SDS011;62555;52.678;4.900;2022-11-24T06:28:47;6.20;;;1.80;;
74196;SDS011;62555;52.678;4.900;2022-11-24T06:31:13;6.32;;;1.30;;
74196;SDS011;62555;52.678;4.900;2022-11-24T06:33:38;6.05;;;1.20;;
74196;SDS011;62555;52.678;4.900;2022-11-24T06:36:05;5.03;;;1.38;;
74196;SDS011;62555;52.678;4.900;2022-11-24T06:38:33;4.28;;;1.17;;
74196;SDS011;62555;52.678;4.900;2022-11-24T06:41:20;2.30;;;1.10;;
74196;SDS011;62555;52.678;4.900;2022-11-24T06:43:44;3.30;;;1.40;;
74196;SDS011;62555;52.678;4.900;2022-11-24T06:46:10;3.70;;;0.80;;
74196;SDS011;62555;52.678;4.900;2022-11-24T06:48:36;5.72;;;1.00;;
74196;SDS011;62555;52.678;4.900;2022-11-24T06:51:02;4.05;;;1.75;;
74196;SDS011;62555;52.678;4.900;2022-11-24T06:53:30;5.43;;;1.33;;
74196;SDS011;62555;52.678;4.900;2022-11-24T06:55:59;5.05;;;1.55;;
74196;SDS011;62555;52.678;4.900;2022-11-24T06:58:24;4.45;;;0.90;;
74196;SDS011;62555;52.678;4.900;2022-11-24T07:00:50;7.05;;;1.75;;
74196;SDS011;62555;52.678;4.900;2022-11-24T07:03:16;4.10;;;1.30;;
74196;SDS011;62555;52.678;4.900;2022-11-24T07:05:43;3.78;;;1.55;;
74196;SDS011;62555;52.678;4.900;2022-11-24T07:08:08;2.45;;;0.98;;
74196;SDS011;62555;52.678;4.900;2022-11-24T07:10:34;3.47;;;1.02;;
74196;SDS011;62555;52.678;4.900;2022-11-24T07:12:59;3.15;;;0.95;;
74196;SDS011;62555;52.678;4.900;2022-11-24T07:15:27;2.72;;;0.90;;
74196;SDS011;62555;52.678;4.900;2022-11-24T07:17:53;3.20;;;0.88;;
74196;SDS011;62555;52.678;4.900;2022-11-24T07:20:18;3.58;;;0.82;;
74196;SDS011;62555;52.678;4.900;2022-11-24T07:22:44;3.13;;;0.95;;
74196;SDS011;62555;52.678;4.900;2022-11-24T07:25:09;2.15;;;0.80;;
74196;SDS011;62555;52.678;4.900;2022-11-24T07:27:35;1.70;;;0.93;;
74196;SDS011;62555;52.678;4.900;2022-11-24T07:30:00;3.55;;;0.90;;
74196;SDS011;62555;52.678;4.900;2022-11-24T07:32:26;3.58;;;0.77;;
74196;SDS011;62555;52.678;4.900;2022-11-24T07:34:51;3.90;;;1.02;;
74196;SDS011;62555;52.678;4.900;2022-11-24T07:37:17;2.95;;;0.93;;
74196;SDS011;62555;52.678;4.900;2022-11-24T07:39:42;4.13;;;1.25;;
74196;SDS011;62555;52.678;4.900;2022-11-24T07:42:07;5.50;;;0.90;;
74196;SDS011;62555;52.678;4.900;2022-11-24T07:44:34;1.55;;;0.70;;
74196;SDS011;62555;52.678;4.900;2022-11-24T07:46:59;2.47;;;0.90;;
74196;SDS011;62555;52.678;4.900;2022-11-24T07:49:25;2.58;;;0.63;;
74196;SDS011;62555;52.678;4.900;2022-11-24T07:51:50;3.78;;;1.10;;
74196;SDS011;62555;52.678;4.900;2022-11-24T07:54:15;2.15;;;0.75;;
74196;SDS011;62555;52.678;4.900;2022-11-24T07:56:40;1.88;;;0.75;;
74196;SDS011;62555;52.678;4.900;2022-11-24T07:59:06;3.67;;;1.08;;
74196;SDS011;62555;52.678;4.900;2022-11-24T08:01:31;3.20;;;0.98;;
74196;SDS011;62555;52.678;4.900;2022-11-24T08:03:57;1.48;;;0.60;;
74196;SDS011;62555;52.678;4.900;2022-11-24T08:06:22;2.90;;;1.23;;
74196;SDS011;62555;52.678;4.900;2022-11-24T08:08:47;3.80;;;1.08;;
74196;SDS011;62555;52.678;4.900;2022-11-24T08:11:14;5.07;;;1.23;;
74196;SDS011;62555;52.678;4.900;2022-11-24T08:13:40;2.88;;;1.23;;
74196;SDS011;62555;52.678;4.900;2022-11-24T08:16:06;3.95;;;0.80;;
74196;SDS011;62555;52.678;4.900;2022-11-24T08:18:35;2.70;;;0.60;;
74196;SDS011;62555;52.678;4.900;2022-11-24T08:21:01;3.03;;;0.90;;
74196;SDS011;62555;52.678;4.900;2022-11-24T08:23:27;3.53;;;0.82;;
74196;SDS011;62555;52.678;4.900;2022-11-24T08:25:53;1.45;;;0.50;;
74196;SDS011;62555;52.678;4.900;2022-11-24T08:28:20;2.83;;;1.58;;
74196;SDS011;62555;52.678;4.900;2022-11-24T08:30:45;1.70;;;0.70;;
74196;SDS011;62555;52.678;4.900;2022-11-24T08:33:11;2.33;;;0.90;;
74196;SDS011;62555;52.678;4.900;2022-11-24T08:35:37;1.55;;;0.73;;
74196;SDS011;62555;52.678;4.900;2022-11-24T08:38:03;1.50;;;0.90;;
74196;SDS011;62555;52.678;4.900;2022-11-24T08:40:29;2.20;;;0.80;;
74196;SDS011;62555;52.678;4.900;2022-11-24T08:43:00;2.50;;;0.98;;
74196;SDS011;62555;52.678;4.900;2022-11-24T08:45:26;3.53;;;0.90;;
74196;SDS011;62555;52.678;4.900;2022-11-24T08:47:52;2.00;;;0.70;;
74196;SDS011;62555;52.678;4.900;2022-11-24T08:50:18;2.22;;;0.90;;
74196;SDS011;62555;52.678;4.900;2022-11-24T08:52:43;2.13;;;0.70;;
74196;SDS011;62555;52.678;4.900;2022-11-24T08:55:09;3.78;;;1.25;;
74196;SDS011;62555;52.678;4.900;2022-11-24T08:57:35;2.25;;;1.00;;
74196;SDS011;62555;52.678;4.900;2022-11-24T09:00:00;2.28;;;0.55;;
74196;SDS011;62555;52.678;4.900;2022-11-24T09:02:26;1.95;;;0.70;;
74196;SDS011;62555;52.678;4.900;2022-11-24T09:04:51;3.50;;;0.90;;
74196;SDS011;62555;52.678;4.900;2022-11-24T09:07:17;2.53;;;0.80;;
74196;SDS011;62555;52.678;4.900;2022-11-24T09:09:42;1.85;;;0.57;;
74196;SDS011;62555;52.678;4.900;2022-11-24T09:12:08;4.25;;;1.38;;
74196;SDS011;62555;52.678;4.900;2022-11-24T09:14:33;2.42;;;1.00;;
74196;SDS011;62555;52.678;4.900;2022-11-24T09:16:58;2.20;;;0.60;;
74196;SDS011;62555;52.678;4.900;2022-11-24T09:19:24;2.80;;;0.93;;
74196;SDS011;62555;52.678;4.900;2022-11-24T09:21:49;3.40;;;1.33;;
74196;SDS011;62555;52.678;4.900;2022-11-24T09:24:15;2.78;;;1.00;;
74196;SDS011;62555;52.678;4.900;2022-11-24T09:26:41;1.75;;;0.63;;
74196;SDS011;62555;52.678;4.900;2022-11-24T09:29:06;4.55;;;1.25;;
74196;SDS011;62555;52.678;4.900;2022-11-24T09:31:32;3.28;;;1.15;;
74196;SDS011;62555;52.678;4.900;2022-11-24T09:33:59;4.35;;;1.35;;
74196;SDS011;62555;52.678;4.900;2022-11-24T09:36:26;3.83;;;1.23;;
74196;SDS011;62555;52.678;4.900;2022-11-24T09:38:51;2.05;;;0.73;;
74196;SDS011;62555;52.678;4.900;2022-11-24T09:43:48;2.70;;;0.93;;
74196;SDS011;62555;52.678;4.900;2022-11-24T09:46:29;3.80;;;1.15;;
74196;SDS011;62555;52.678;4.900;2022-11-24T09:49:00;5.40;;;0.98;;
74196;SDS011;62555;52.678;4.900;2022-11-24T09:51:27;1.42;;;0.80;;
74196;SDS011;62555;52.678;4.900;2022-11-24T09:58:59;2.90;;;1.20;;
74196;SDS011;62555;52.678;4.900;2022-11-24T10:01:34;2.90;;;0.98;;
74196;SDS011;62555;52.678;4.900;2022-11-24T10:04:01;2.05;;;1.02;;
74196;SDS011;62555;52.678;4.900;2022-11-24T10:09:13;3.10;;;1.00;;
74196;SDS011;62555;52.678;4.900;2022-11-24T10:11:45;2.72;;;1.00;;
74196;SDS011;62555;52.678;4.900;2022-11-24T10:19:27;3.25;;;1.33;;
74196;SDS011;62555;52.678;4.900;2022-11-24T10:27:17;2.67;;;1.00;;
74196;SDS011;62555;52.678;4.900;2022-11-24T10:29:44;2.70;;;1.10;;
74196;SDS011;62555;52.678;4.900;2022-11-24T10:32:17;2.63;;;1.00;;
74196;SDS011;62555;52.678;4.900;2022-11-24T10:34:48;3.03;;;1.20;;
74196;SDS011;62555;52.678;4.900;2022-11-24T10:37:27;3.15;;;1.13;;
74196;SDS011;62555;52.678;4.900;2022-11-24T10:42:36;3.10;;;1.20;;
74196;SDS011;62555;52.678;4.900;2022-11-24T10:47:33;2.20;;;1.10;;
74196;SDS011;62555;52.678;4.900;2022-11-24T10:50:03;2.65;;;1.08;;
74196;SDS011;62555;52.678;4.900;2022-11-24T10:53:29;3.78;;;1.20;;
74196;SDS011;62555;52.678;4.900;2022-11-24T10:58:25;3.03;;;1.00;;
74196;SDS011;62555;52.678;4.900;2022-11-24T11:00:52;3.63;;;1.60;;
74196;SDS011;62555;52.678;4.900;2022-11-24T11:03:22;2.00;;;1.00;;
74196;SDS011;62555;52.678;4.900;2022-11-24T11:05:55;3.75;;;1.15;;
74196;SDS011;62555;52.678;4.900;2022-11-24T11:08:25;3.72;;;1.00;;
74196;SDS011;62555;52.678;4.900;2022-11-24T11:13:54;4.20;;;1.40;;
74196;SDS011;62555;52.678;4.900;2022-11-24T11:16:22;4.35;;;1.48;;
74196;SDS011;62555;52.678;4.900;2022-11-24T11:18:51;3.70;;;1.33;;
74196;SDS011;62555;52.678;4.900;2022-11-24T11:21:25;3.20;;;1.23;;
74196;SDS011;62555;52.678;4.900;2022-11-24T11:23:59;3.40;;;1.15;;
74196;SDS011;62555;52.678;4.900;2022-11-24T11:31:55;2.80;;;1.52;;
74196;SDS011;62555;52.678;4.900;2022-11-24T11:34:21;5.50;;;1.52;;
74196;SDS011;62555;52.678;4.900;2022-11-24T11:36:48;3.90;;;1.13;;
74196;SDS011;62555;52.678;4.900;2022-11-24T11:39:19;3.28;;;1.38;;
74196;SDS011;62555;52.678;4.900;2022-11-24T11:41:48;4.60;;;1.67;;
74196;SDS011;62555;52.678;4.900;2022-11-24T11:44:20;5.07;;;1.70;;
74196;SDS011;62555;52.678;4.900;2022-11-24T11:46:53;5.47;;;1.83;;
74196;SDS011;62555;52.678;4.900;2022-11-24T11:49:19;1.85;;;1.30;;
74196;SDS011;62555;52.678;4.900;2022-11-24T12:06:32;4.00;;;1.48;;
74196;SDS011;62555;52.678;4.900;2022-11-24T12:16:52;3.97;;;1.40;;
74196;SDS011;62555;52.678;4.900;2022-11-24T12:25:25;4.65;;;1.60;;
74196;SDS011;62555;52.678;4.900;2022-11-24T12:28:12;6.60;;;1.95;;
74196;SDS011;62555;52.678;4.900;2022-11-24T12:31:00;3.97;;;1.80;;
74196;SDS011;62555;52.678;4.900;2022-11-24T12:38:57;6.85;;;1.73;;
74196;SDS011;62555;52.678;4.900;2022-11-24T12:43:57;4.97;;;1.85;;
74196;SDS011;62555;52.678;4.900;2022-11-24T12:49:07;6.20;;;1.75;;
74196;SDS011;62555;52.678;4.900;2022-11-24T12:51:39;4.13;;;1.88;;
74196;SDS011;62555;52.678;4.900;2022-11-24T12:54:13;6.47;;;1.80;;
74196;SDS011;62555;52.678;4.900;2022-11-24T12:56:45;6.35;;;1.83;;
74196;SDS011;62555;52.678;4.900;2022-11-24T12:59:19;8.73;;;1.85;;
74196;SDS011;62555;52.678;4.900;2022-11-24T13:01:50;5.78;;;1.92;;
74196;SDS011;62555;52.678;4.900;2022-11-24T13:06:59;4.40;;;1.58;;
74196;SDS011;62555;52.678;4.900;2022-11-24T13:09:27;6.75;;;1.30;;
74196;SDS011;62555;52.678;4.900;2022-11-24T13:11:53;8.55;;;2.17;;
74196;SDS011;62555;52.678;4.900;2022-11-24T13:14:32;7.53;;;1.92;;
74196;SDS011;62555;52.678;4.900;2022-11-24T13:17:00;7.00;;;1.92;;
74196;SDS011;62555;52.678;4.900;2022-11-24T13:19:34;7.32;;;2.15;;
74196;SDS011;62555;52.678;4.900;2022-11-24T13:24:32;5.75;;;1.70;;
74196;SDS011;62555;52.678;4.900;2022-11-24T13:29:39;6.25;;;2.10;;
74196;SDS011;62555;52.678;4.900;2022-11-24T13:40:37;5.10;;;2.20;;
74196;SDS011;62555;52.678;4.900;2022-11-24T13:48:50;6.75;;;1.70;;
74196;SDS011;62555;52.678;4.900;2022-11-24T13:53:31;8.50;;;2.63;;
74196;SDS011;62555;52.678;4.900;2022-11-24T13:56:02;6.55;;;1.70;;
74196;SDS011;62555;52.678;4.900;2022-11-24T13:58:42;4.75;;;1.83;;
74196;SDS011;62555;52.678;4.900;2022-11-24T14:03:58;5.25;;;1.45;;
74196;SDS011;62555;52.678;4.900;2022-11-24T14:09:15;4.88;;;2.25;;
74196;SDS011;62555;52.678;4.900;2022-11-24T14:11:52;5.35;;;1.80;;
74196;SDS011;62555;52.678;4.900;2022-11-24T14:14:22;5.43;;;2.28;;
74196;SDS011;62555;52.678;4.900;2022-11-24T14:16:54;3.90;;;1.65;;
74196;SDS011;62555;52.678;4.900;2022-11-24T14:19:34;6.03;;;2.17;;
74196;SDS011;62555;52.678;4.900;2022-11-24T14:21:59;5.03;;;1.50;;
74196;SDS011;62555;52.678;4.900;2022-11-24T14:24:31;5.93;;;2.10;;
74196;SDS011;62555;52.678;4.900;2022-11-24T14:26:57;8.02;;;1.80;;
74196;SDS011;62555;52.678;4.900;2022-11-24T14:29:23;4.65;;;1.60;;
74196;SDS011;62555;52.678;4.900;2022-11-24T14:31:56;9.63;;;2.55;;
74196;SDS011;62555;52.678;4.900;2022-11-24T14:36:49;8.18;;;1.83;;
74196;SDS011;62555;52.678;4.900;2022-11-24T14:39:18;7.68;;;2.00;;
74196;SDS011;62555;52.678;4.900;2022-11-24T14:44:27;8.60;;;1.70;;
74196;SDS011;62555;52.678;4.900;2022-11-24T14:47:00;5.40;;;2.25;;
74196;SDS011;62555;52.678;4.900;2022-11-24T14:49:28;6.65;;;1.70;;
74196;SDS011;62555;52.678;4.900;2022-11-24T14:51:57;8.43;;;2.80;;
74196;SDS011;62555;52.678;4.900;2022-11-24T14:54:25;6.05;;;2.10;;
74196;SDS011;62555;52.678;4.900;2022-11-24T14:57:01;7.35;;;1.45;;
74196;SDS011;62555;52.678;4.900;2022-11-24T14:59:28;6.47;;;1.90;;
74196;SDS011;62555;52.678;4.900;2022-11-24T15:01:55;7.15;;;2.08;;
74196;SDS011;62555;52.678;4.900;2022-11-24T15:04:25;4.30;;;1.55;;
74196;SDS011;62555;52.678;4.900;2022-11-24T15:09:55;6.25;;;1.83;;
74196;SDS011;62555;52.678;4.900;2022-11-24T15:12:40;4.95;;;1.73;;
74196;SDS011;62555;52.678;4.900;2022-11-24T15:17:51;6.63;;;2.03;;
74196;SDS011;62555;52.678;4.900;2022-11-24T15:20:31;7.43;;;2.33;;
74196;SDS011;62555;52.678;4.900;2022-11-24T15:25:57;6.78;;;1.98;;
74196;SDS011;62555;52.678;4.900;2022-11-24T15:28:41;6.40;;;1.67;;
74196;SDS011;62555;52.678;4.900;2022-11-24T15:31:10;4.30;;;1.73;;
74196;SDS011;62555;52.678;4.900;2022-11-24T15:33:37;7.25;;;2.22;;
74196;SDS011;62555;52.678;4.900;2022-11-24T15:36:02;5.65;;;1.90;;
74196;SDS011;62555;52.678;4.900;2022-11-24T15:38:28;6.50;;;1.83;;
74196;SDS011;62555;52.678;4.900;2022-11-24T15:40:54;4.07;;;1.38;;
74196;SDS011;62555;52.678;4.900;2022-11-24T15:45:52;5.13;;;1.63;;
74196;SDS011;62555;52.678;4.900;2022-11-24T15:48:17;8.23;;;2.40;;
74196;SDS011;62555;52.678;4.900;2022-11-24T15:50:43;7.82;;;1.92;;
74196;SDS011;62555;52.678;4.900;2022-11-24T15:53:14;6.18;;;2.22;;
74196;SDS011;62555;52.678;4.900;2022-11-24T15:55:49;8.93;;;2.97;;
74196;SDS011;62555;52.678;4.900;2022-11-24T15:58:15;9.60;;;2.65;;
74196;SDS011;62555;52.678;4.900;2022-11-24T16:00:41;17.17;;;3.60;;
74196;SDS011;62555;52.678;4.900;2022-11-24T16:03:07;11.25;;;3.20;;
74196;SDS011;62555;52.678;4.900;2022-11-24T16:05:33;12.02;;;4.03;;
74196;SDS011;62555;52.678;4.900;2022-11-24T16:07:58;13.65;;;3.20;;
74196;SDS011;62555;52.678;4.900;2022-11-24T16:10:28;19.63;;;3.55;;
74196;SDS011;62555;52.678;4.900;2022-11-24T16:12:55;15.32;;;3.92;;
74196;SDS011;62555;52.678;4.900;2022-11-24T16:15:21;15.02;;;4.38;;
74196;SDS011;62555;52.678;4.900;2022-11-24T16:17:46;14.18;;;3.63;;
74196;SDS011;62555;52.678;4.900;2022-11-24T16:20:12;13.18;;;3.58;;
74196;SDS011;62555;52.678;4.900;2022-11-24T16:22:37;14.52;;;3.85;;
74196;SDS011;62555;52.678;4.900;2022-11-24T16:25:03;12.75;;;4.25;;
74196;SDS011;62555;52.678;4.900;2022-11-24T16:27:29;16.83;;;4.07;;
74196;SDS011;62555;52.678;4.900;2022-11-24T16:29:55;16.98;;;3.50;;
74196;SDS011;62555;52.678;4.900;2022-11-24T16:32:20;18.08;;;4.03;;
74196;SDS011;62555;52.678;4.900;2022-11-24T16:34:45;14.20;;;4.30;;
74196;SDS011;62555;52.678;4.900;2022-11-24T16:37:11;19.63;;;3.47;;
74196;SDS011;62555;52.678;4.900;2022-11-24T16:39:36;16.45;;;4.10;;
74196;SDS011;62555;52.678;4.900;2022-11-24T16:42:01;17.80;;;4.18;;
74196;SDS011;62555;52.678;4.900;2022-11-24T16:44:27;12.32;;;3.75;;
74196;SDS011;62555;52.678;4.900;2022-11-24T16:46:53;14.23;;;3.85;;
74196;SDS011;62555;52.678;4.900;2022-11-24T16:49:18;15.18;;;4.40;;
74196;SDS011;62555;52.678;4.900;2022-11-24T16:51:44;16.98;;;3.85;;
74196;SDS011;62555;52.678;4.900;2022-11-24T16:54:09;12.65;;;3.78;;
74196;SDS011;62555;52.678;4.900;2022-11-24T16:56:35;15.35;;;3.35;;
74196;SDS011;62555;52.678;4.900;2022-11-24T16:59:00;12.27;;;3.88;;
74196;SDS011;62555;52.678;4.900;2022-11-24T17:01:26;13.25;;;3.88;;
74196;SDS011;62555;52.678;4.900;2022-11-24T17:03:51;14.10;;;3.75;;